Berlin — 9HA2295 — position and weather

sailwx.info

Track history (hours):
 
Tides and Currents Weather Stations Pressure Air Temp Water Temp Dewpoint Dewpoint Depression Visibility Wind Speed Wind Dir Waves Ship Positions

Berlin

Last reported at 2018-Jun-20 12:44 UTC. Time now 2018-Jun-21 23:55 UTC.
Position N 55°51' W 007°05'.

Length 140 m; draft 5.1 m.

Type: Ship. MMSI: 248277000.

Date/timePositionNaut miles runAvg speedWind from/ knotsBaromVisibWave heightAir tempDewpointWater temp
2018-Jun-20 12:44N 55°51' W 007°05'312.2
2018-Jun-20 12:29N 55°49' W 007°01'612.3
2018-Jun-20 12:00N 55°45' W 006°54'612.7
2018-Jun-20 11:30N 55°40' W 006°46'612.7
2018-Jun-20 11:00N 55°36' W 006°37'713.1
2018-Jun-20 10:30N 55°32' W 006°28'714.0
2018-Jun-20 10:00N 55°28' W 006°18'714.7
2018-Jun-20 09:30N 55°25' W 006°06'815.3
2018-Jun-20 09:00N 55°20' W 005°57'816.5
2018-Jun-20 08:30N 55°13' W 005°50'815.9
2018-Jun-20 08:00N 55°06' W 005°43'1015.5
2018-Jun-20 07:20N 54°57' W 005°33'515.2
2018-Jun-20 07:00N 54°53' W 005°28'715.0
2018-Jun-20 06:30N 54°47' W 005°21'714.9
2018-Jun-20 06:00N 54°40' W 005°15'815.5
2018-Jun-20 05:31N 54°32' W 005°11'815.1
2018-Jun-20 05:00N 54°25' W 005°09'714.2
2018-Jun-20 04:30N 54°18' W 005°12'714.4
2018-Jun-20 04:00N 54°11' W 005°16'714.5
2018-Jun-20 03:30N 54°04' W 005°19'4514.9
2018-Jun-20 00:29N 53°24' W 005°54'814.0
2018-Jun-19 23:56N 53°20' W 006°04'  
2018-Jun-14 06:04N 53°20' W 006°04'1 9.0
2018-Jun-14 05:59N 53°20' W 006°03'2810.5
2018-Jun-14 03:17N 53°46' W 005°44'312.1
2018-Jun-14 03:00N 53°49' W 005°42'711.5
2018-Jun-14 02:26N 53°55' W 005°38'1010.7
2018-Jun-14 01:28N 54°04' W 005°31'510.3
2018-Jun-14 01:00N 54°09' W 005°28'5 9.9
2018-Jun-14 00:30N 54°14' W 005°25'5 9.8
2018-Jun-14 00:00N 54°18' W 005°22'5 9.8
2018-Jun-13 23:30N 54°23' W 005°19'510.1
2018-Jun-13 23:00N 54°28' W 005°21'611.5
2018-Jun-13 22:30N 54°33' W 005°23'612.2
2018-Jun-13 22:00N 54°39' W 005°25'612.2
2018-Jun-13 21:31N 54°43' W 005°33'612.9
2018-Jun-13 21:00N 54°41' W 005°44'610.6
2018-Jun-13 20:29N 54°39' W 005°52'2 4.4
2018-Jun-13 19:55N 54°37' W 005°55'0 0.0
2018-Jun-13 19:28N 54°37' W 005°55'0 0.0
2018-Jun-13 18:55N 54°37' W 005°55'0 0.0
2018-Jun-13 18:28N 54°37' W 005°55'0 0.0
2018-Jun-13 17:55N 54°37' W 005°55'0 0.0
2018-Jun-13 17:28N 54°37' W 005°55'0 0.0
2018-Jun-13 16:58N 54°37' W 005°55'0 0.0
2018-Jun-13 16:28N 54°37' W 005°55'0 0.0
2018-Jun-13 15:58N 54°37' W 005°55'0 0.0
2018-Jun-13 15:25N 54°37' W 005°55'0 0.0
2018-Jun-13 14:58N 54°37' W 005°55'0 0.0
2018-Jun-13 14:28N 54°37' W 005°55'0 0.0
2018-Jun-13 13:58N 54°37' W 005°55'0 0.0
2018-Jun-13 13:28N 54°37' W 005°55'0 0.0
2018-Jun-13 12:58N 54°37' W 005°55'0 0.0
2018-Jun-13 12:28N 54°37' W 005°55'0 0.0
2018-Jun-13 11:58N 54°37' W 005°55'0 0.0
2018-Jun-13 11:28N 54°37' W 005°55'0 0.0
2018-Jun-13 10:58N 54°37' W 005°55'0 0.0
2018-Jun-13 10:28N 54°37' W 005°55'0 0.0
2018-Jun-13 09:58N 54°37' W 005°55'0 0.0
2018-Jun-13 09:28N 54°37' W 005°55'0 0.0
2018-Jun-13 08:58N 54°37' W 005°55'0 0.0
2018-Jun-13 08:28N 54°37' W 005°55'0 0.0
2018-Jun-13 07:58N 54°37' W 005°55'0 0.0
2018-Jun-13 07:28N 54°37' W 005°55'0 0.0
2018-Jun-13 06:58N 54°37' W 005°55'0 0.7
2018-Jun-13 06:29N 54°37' W 005°54'2 4.4
2018-Jun-13 06:00N 54°39' W 005°52'511.1
2018-Jun-13 05:30N 54°42' W 005°45'713.1
2018-Jun-13 05:00N 54°46' W 005°36'612.1
2018-Jun-13 04:30N 54°52' W 005°33'26 9.4
2018-Jun-13 01:43N 55°14' W 005°57'2 7.1
2018-Jun-13 01:30N 55°15' W 005°58'4 7.0
2018-Jun-13 01:00N 55°18' W 006°03'4 8.2
2018-Jun-13 00:31N 55°21' W 006°07'5 9.6
2018-Jun-13 00:00N 55°22' W 006°15'5 9.2
2018-Jun-12 23:31N 55°25' W 006°22'5 9.6
2018-Jun-12 23:00N 55°29' W 006°26'510.4
2018-Jun-12 22:30N 55°33' W 006°31'510.7
2018-Jun-12 22:00N 55°38' W 006°38'510.0
2018-Jun-12 21:30N 55°43' W 006°39'712.8
2018-Jun-12 20:59N 55°49' W 006°34'4811.5
2018-Jun-12 16:52N 56°24' W 005°37'3 9.0
2018-Jun-12 16:30N 56°26' W 005°32'1 1.6
2018-Jun-12 15:57N 56°26' W 005°30'0 0.1
2018-Jun-12 15:30N 56°26' W 005°30'0 0.0
2018-Jun-12 15:00N 56°26' W 005°30'0 0.0
2018-Jun-12 14:24N 56°26' W 005°30'0 0.1
2018-Jun-12 13:57N 56°26' W 005°30'0 0.0
2018-Jun-12 13:27N 56°26' W 005°30'0 0.0
2018-Jun-12 13:00N 56°26' W 005°30'0 0.0
2018-Jun-12 12:30N 56°26' W 005°30'0 0.0
2018-Jun-12 12:00N 56°26' W 005°30'0 0.0
2018-Jun-12 11:30N 56°26' W 005°30'0 0.0
2018-Jun-12 11:00N 56°26' W 005°30'0 0.1
2018-Jun-12 10:30N 56°26' W 005°30'0 0.1
2018-Jun-12 10:00N 56°26' W 005°30'0 0.0
2018-Jun-12 09:30N 56°26' W 005°30'0 0.0
2018-Jun-12 09:00N 56°26' W 005°30'0 0.0
2018-Jun-12 08:30N 56°26' W 005°30'0 0.0
2018-Jun-12 07:57N 56°26' W 005°30'0 0.1
2018-Jun-12 07:30N 56°26' W 005°30'150 5.0
2018-Jun-11 01:30N 58°45' W 003°44'715.1
2018-Jun-11 01:00N 58°45' W 003°30'917.2
2018-Jun-11 00:30N 58°43' W 003°13'918.1
2018-Jun-11 00:00N 58°39' W 002°58'714.8
2018-Jun-10 23:30N 58°32' W 002°52'  
Track history (hours):
 
Tides and Currents Weather Stations Pressure Air Temp Water Temp Dewpoint Dewpoint Depression Visibility Wind Speed Wind Dir Waves Ship Positions

Berlin

Last reported at 2018-Jun-20 12:44 UTC. Time now 2018-Jun-21 23:55 UTC.
Position N 55°51' W 007°05'.

Length 140 m; draft 5.1 m.

Type: Ship. MMSI: 248277000.

Date/timePositionNaut miles runAvg speedWind from/ knotsBaromVisibWave heightAir tempDewpointWater temp
2018-Jun-20 12:44N 55°51' W 007°05'312.2
2018-Jun-20 12:29N 55°49' W 007°01'612.3
2018-Jun-20 12:00N 55°45' W 006°54'612.7
2018-Jun-20 11:30N 55°40' W 006°46'612.7
2018-Jun-20 11:00N 55°36' W 006°37'713.1
2018-Jun-20 10:30N 55°32' W 006°28'714.0
2018-Jun-20 10:00N 55°28' W 006°18'714.7
2018-Jun-20 09:30N 55°25' W 006°06'815.3
2018-Jun-20 09:00N 55°20' W 005°57'816.5
2018-Jun-20 08:30N 55°13' W 005°50'815.9
2018-Jun-20 08:00N 55°06' W 005°43'1015.5
2018-Jun-20 07:20N 54°57' W 005°33'515.2
2018-Jun-20 07:00N 54°53' W 005°28'715.0
2018-Jun-20 06:30N 54°47' W 005°21'714.9
2018-Jun-20 06:00N 54°40' W 005°15'815.5
2018-Jun-20 05:31N 54°32' W 005°11'815.1
2018-Jun-20 05:00N 54°25' W 005°09'714.2
2018-Jun-20 04:30N 54°18' W 005°12'714.4
2018-Jun-20 04:00N 54°11' W 005°16'714.5
2018-Jun-20 03:30N 54°04' W 005°19'4514.9
2018-Jun-20 00:29N 53°24' W 005°54'814.0
2018-Jun-19 23:56N 53°20' W 006°04'  
2018-Jun-14 06:04N 53°20' W 006°04'1 9.0
2018-Jun-14 05:59N 53°20' W 006°03'2810.5
2018-Jun-14 03:17N 53°46' W 005°44'312.1
2018-Jun-14 03:00N 53°49' W 005°42'711.5
2018-Jun-14 02:26N 53°55' W 005°38'1010.7
2018-Jun-14 01:28N 54°04' W 005°31'510.3
2018-Jun-14 01:00N 54°09' W 005°28'5 9.9
2018-Jun-14 00:30N 54°14' W 005°25'5 9.8
2018-Jun-14 00:00N 54°18' W 005°22'5 9.8
2018-Jun-13 23:30N 54°23' W 005°19'510.1
2018-Jun-13 23:00N 54°28' W 005°21'611.5
2018-Jun-13 22:30N 54°33' W 005°23'612.2
2018-Jun-13 22:00N 54°39' W 005°25'612.2
2018-Jun-13 21:31N 54°43' W 005°33'612.9
2018-Jun-13 21:00N 54°41' W 005°44'610.6
2018-Jun-13 20:29N 54°39' W 005°52'2 4.4
2018-Jun-13 19:55N 54°37' W 005°55'0 0.0
2018-Jun-13 19:28N 54°37' W 005°55'0 0.0
2018-Jun-13 18:55N 54°37' W 005°55'0 0.0
2018-Jun-13 18:28N 54°37' W 005°55'0 0.0
2018-Jun-13 17:55N 54°37' W 005°55'0 0.0
2018-Jun-13 17:28N 54°37' W 005°55'0 0.0
2018-Jun-13 16:58N 54°37' W 005°55'0 0.0
2018-Jun-13 16:28N 54°37' W 005°55'0 0.0
2018-Jun-13 15:58N 54°37' W 005°55'0 0.0
2018-Jun-13 15:25N 54°37' W 005°55'0 0.0
2018-Jun-13 14:58N 54°37' W 005°55'0 0.0
2018-Jun-13 14:28N 54°37' W 005°55'0 0.0
2018-Jun-13 13:58N 54°37' W 005°55'0 0.0
2018-Jun-13 13:28N 54°37' W 005°55'0 0.0
2018-Jun-13 12:58N 54°37' W 005°55'0 0.0
2018-Jun-13 12:28N 54°37' W 005°55'0 0.0
2018-Jun-13 11:58N 54°37' W 005°55'0 0.0
2018-Jun-13 11:28N 54°37' W 005°55'0 0.0
2018-Jun-13 10:58N 54°37' W 005°55'0 0.0
2018-Jun-13 10:28N 54°37' W 005°55'0 0.0
2018-Jun-13 09:58N 54°37' W 005°55'0 0.0
2018-Jun-13 09:28N 54°37' W 005°55'0 0.0
2018-Jun-13 08:58N 54°37' W 005°55'0 0.0
2018-Jun-13 08:28N 54°37' W 005°55'0 0.0
2018-Jun-13 07:58N 54°37' W 005°55'0 0.0
2018-Jun-13 07:28N 54°37' W 005°55'0 0.0
2018-Jun-13 06:58N 54°37' W 005°55'0 0.7
2018-Jun-13 06:29N 54°37' W 005°54'2 4.4
2018-Jun-13 06:00N 54°39' W 005°52'511.1
2018-Jun-13 05:30N 54°42' W 005°45'713.1
2018-Jun-13 05:00N 54°46' W 005°36'612.1
2018-Jun-13 04:30N 54°52' W 005°33'26 9.4
2018-Jun-13 01:43N 55°14' W 005°57'2 7.1
2018-Jun-13 01:30N 55°15' W 005°58'4 7.0
2018-Jun-13 01:00N 55°18' W 006°03'4 8.2
2018-Jun-13 00:31N 55°21' W 006°07'5 9.6
2018-Jun-13 00:00N 55°22' W 006°15'5 9.2
2018-Jun-12 23:31N 55°25' W 006°22'5 9.6
2018-Jun-12 23:00N 55°29' W 006°26'510.4
2018-Jun-12 22:30N 55°33' W 006°31'510.7
2018-Jun-12 22:00N 55°38' W 006°38'510.0
2018-Jun-12 21:30N 55°43' W 006°39'712.8
2018-Jun-12 20:59N 55°49' W 006°34'4811.5
2018-Jun-12 16:52N 56°24' W 005°37'3 9.0
2018-Jun-12 16:30N 56°26' W 005°32'1 1.6
2018-Jun-12 15:57N 56°26' W 005°30'0 0.1
2018-Jun-12 15:30N 56°26' W 005°30'0 0.0
2018-Jun-12 15:00N 56°26' W 005°30'0 0.0
2018-Jun-12 14:24N 56°26' W 005°30'0 0.1
2018-Jun-12 13:57N 56°26' W 005°30'0 0.0
2018-Jun-12 13:27N 56°26' W 005°30'0 0.0
2018-Jun-12 13:00N 56°26' W 005°30'0 0.0
2018-Jun-12 12:30N 56°26' W 005°30'0 0.0
2018-Jun-12 12:00N 56°26' W 005°30'0 0.0
2018-Jun-12 11:30N 56°26' W 005°30'0 0.0
2018-Jun-12 11:00N 56°26' W 005°30'0 0.1
2018-Jun-12 10:30N 56°26' W 005°30'0 0.1
2018-Jun-12 10:00N 56°26' W 005°30'0 0.0
2018-Jun-12 09:30N 56°26' W 005°30'0 0.0
2018-Jun-12 09:00N 56°26' W 005°30'0 0.0
2018-Jun-12 08:30N 56°26' W 005°30'0 0.0
2018-Jun-12 07:57N 56°26' W 005°30'0 0.1
2018-Jun-12 07:30N 56°26' W 005°30'150 5.0
2018-Jun-11 01:30N 58°45' W 003°44'715.1
2018-Jun-11 01:00N 58°45' W 003°30'917.2
2018-Jun-11 00:30N 58°43' W 003°13'918.1
2018-Jun-11 00:00N 58°39' W 002°58'714.8
2018-Jun-10 23:30N 58°32' W 002°52'  

Dump ship's entire track history